Forside
METAR-TAF:

METAR-TAF

Lufthavne :

Iowa County Airport

Mineral Point, Wisconsin, USA

Breddekreds: 42-53-07N, længdekreds: 090-13-55W, højde: 359 m

Aktuelle vejr

Denne rapport blev lavet for 10 minutter siden, kl. 14:15 UTC
Vind 6 kt fra nordnordøst
Temperatur 4°C
Fugtighed 70%
Tryk 1019 hPa
Sigt: 16.1 km
Spredte skyer i en højde af 2000 ft

METAR: KMRJ 311415Z AUTO 02006KT 10SM SCT020 04/M01 A3009 RMK AO2

Tid: 09:25 (14:25 UTC)


TAF: fraværende

Vejrobservationer og prognoser fra mere end 4000 lufthavne (METAR og TAF).

De gule og røde prikker repræsenterer de meteorologiske stationer.

Flyt musen over at se navnet på stationen.

Så klik over at se vejr observationer og prognoser.

At skifte det kort: Klik på de grønne knapper med et sort kors for at zoome ind; på den grønne knap med en bindestreg for at zoome ud; eller på de grønne pile for tilstødende kort.


METAR-TAF: